Time;durP1;ratioP1;P1;durP2;ratioP2;P2;SDS_P1;SDS_P2;PMS_P1;PMS_P2;Temp;Humidity;BMP_temperature;BMP_pressure;BME280_temperature;BME280_humidity;BME280_pressure;Samples;Min_cycle;Max_cycle;Signal;HPM_P1;HPM_P2
2023/12/21 00:01:12;;;;;;;3.38;2.25;;;8.70;99.90;;;;;;5051377;28;20245;-49
2023/12/21 00:03:38;;;;;;;4.63;2.25;;;8.80;99.90;;;;;;5051417;28;20626;-48
2023/12/21 00:06:04;;;;;;;3.30;1.80;;;8.60;99.90;;;;;;5051650;28;20634;-60
2023/12/21 00:08:29;;;;;;;4.00;2.10;;;8.90;99.90;;;;;;5051691;28;20634;-51
2023/12/21 00:10:55;;;;;;;3.05;1.95;;;8.70;99.90;;;;;;5051759;28;20241;-49
2023/12/21 00:13:22;;;;;;;1.95;1.67;;;8.60;99.90;;;;;;5051740;28;20198;-60
2023/12/21 00:15:47;;;;;;;5.47;2.00;;;8.60;99.90;;;;;;5051509;28;20218;-59
2023/12/21 00:18:13;;;;;;;2.92;2.20;;;8.70;99.90;;;;;;5049734;28;20183;-62
2023/12/21 00:20:39;;;;;;;2.28;2.08;;;8.60;99.90;;;;;;5050026;28;20166;-61
2023/12/21 00:23:04;;;;;;;2.50;1.70;;;8.90;99.90;;;;;;5051465;28;20159;-62
2023/12/21 00:25:30;;;;;;;4.72;2.00;;;8.70;99.90;;;;;;5051227;28;20167;-62
2023/12/21 00:27:56;;;;;;;2.10;1.90;;;8.80;99.90;;;;;;5050959;28;20179;-61
2023/12/21 00:30:22;;;;;;;5.53;1.70;;;8.90;99.90;;;;;;5051768;28;20171;-60
2023/12/21 00:32:47;;;;;;;2.08;1.77;;;8.70;99.90;;;;;;5051376;28;20627;-62
2023/12/21 00:35:13;;;;;;;2.70;2.20;;;8.80;99.90;;;;;;5051088;28;20201;-60
2023/12/21 00:37:38;;;;;;;1.35;1.25;;;8.90;99.90;;;;;;5051037;28;20167;-61
2023/12/21 00:40:05;;;;;;;2.65;1.88;;;8.80;99.90;;;;;;5051093;28;20623;-63
2023/12/21 00:42:32;;;;;;;6.25;2.55;;;8.70;99.90;;;;;;5051008;28;20170;-60
2023/12/21 00:44:57;;;;;;;4.00;2.45;;;8.90;99.90;;;;;;5051115;28;20174;-61
2023/12/21 00:47:23;;;;;;;2.85;2.50;;;9.00;99.90;;;;;;5051515;28;20178;-61
2023/12/21 00:49:49;;;;;;;5.95;3.17;;;8.70;99.90;;;;;;5053856;28;20748;-58
2023/12/21 00:52:14;;;;;;;4.70;3.28;;;8.90;99.90;;;;;;5054926;28;20185;-59
2023/12/21 00:54:40;;;;;;;5.32;3.05;;;8.90;99.90;;;;;;5054716;28;20219;-59
2023/12/21 00:57:06;;;;;;;3.95;2.83;;;8.90;99.90;;;;;;5054675;28;20217;-61
2023/12/21 00:59:31;;;;;;;5.30;3.25;;;8.90;99.90;;;;;;5054818;28;20163;-62
2023/12/21 01:01:57;;;;;;;4.45;3.42;;;8.70;99.90;;;;;;5054686;28;20170;-61
2023/12/21 01:04:24;;;;;;;9.80;4.03;;;8.70;99.90;;;;;;5054547;28;20166;-60
2023/12/21 01:06:50;;;;;;;6.10;3.30;;;8.90;99.90;;;;;;5055191;28;20181;-60
2023/12/21 01:09:15;;;;;;;5.68;3.45;;;8.70;99.90;;;;;;5054558;28;20622;-60
2023/12/21 01:11:41;;;;;;;4.13;3.35;;;8.90;99.90;;;;;;5054508;28;20167;-59
2023/12/21 01:14:06;;;;;;;4.38;3.80;;;8.90;99.90;;;;;;5054512;28;20189;-56
2023/12/21 01:16:32;;;;;;;6.40;3.85;;;8.70;99.90;;;;;;5054309;28;20692;-60
2023/12/21 01:18:58;;;;;;;7.03;4.22;;;8.70;99.90;;;;;;5054092;28;20201;-59
2023/12/21 01:21:24;;;;;;;8.57;3.28;;;8.70;99.90;;;;;;5054839;28;20213;-59
2023/12/21 01:23:50;;;;;;;4.30;3.40;;;8.90;99.90;;;;;;5054599;28;20656;-58
2023/12/21 01:26:16;;;;;;;6.90;3.30;;;9.00;99.90;;;;;;5054200;28;20215;-60
2023/12/21 01:28:41;;;;;;;5.72;3.80;;;9.00;99.90;;;;;;5054147;28;20167;-60
2023/12/21 01:31:08;;;;;;;5.88;3.80;;;8.80;99.90;;;;;;5052821;28;20170;-58
2023/12/21 01:33:33;;;;;;;7.22;4.03;;;8.90;99.90;;;;;;5054280;28;20166;-58
2023/12/21 01:35:59;;;;;;;5.35;3.50;;;9.00;99.90;;;;;;5053946;28;20259;-60
2023/12/21 01:38:25;;;;;;;4.93;2.55;;;8.80;99.90;;;;;;5054013;28;20170;-56
2023/12/21 01:40:50;;;;;;;8.35;3.25;;;8.80;99.90;;;;;;5053089;28;20637;-59
2023/12/21 01:43:16;;;;;;;6.63;3.17;;;8.80;99.90;;;;;;5053812;28;20163;-60
2023/12/21 01:45:41;;;;;;;5.05;3.20;;;8.90;99.90;;;;;;5054091;28;20171;-60
2023/12/21 01:48:09;;;;;;;3.70;3.30;;;9.00;99.90;;;;;;5053595;28;20174;-60
2023/12/21 01:50:34;;;;;;;3.53;2.78;;;9.00;99.90;;;;;;5053756;28;20163;-60
2023/12/21 01:53:02;;;;;;;3.47;2.67;;;8.80;99.90;;;;;;5053677;28;20535;-57
2023/12/21 01:55:27;;;;;;;3.38;2.63;;;8.70;99.90;;;;;;5053451;28;20214;-60
2023/12/21 01:57:53;;;;;;;6.63;3.22;;;8.80;99.90;;;;;;5053752;28;20175;-59
2023/12/21 02:00:19;;;;;;;2.90;2.25;;;8.70;99.90;;;;;;5052792;28;20220;-58
2023/12/21 02:02:45;;;;;;;4.80;2.90;;;9.00;99.90;;;;;;5053754;28;20166;-59
2023/12/21 02:05:10;;;;;;;6.22;2.72;;;8.80;99.90;;;;;;5053365;28;20218;-60
2023/12/21 02:07:36;;;;;;;4.50;2.80;;;9.00;99.90;;;;;;5053464;28;20197;-59
2023/12/21 02:10:02;;;;;;;4.05;2.58;;;8.90;99.90;;;;;;5053373;28;20250;-59
2023/12/21 02:12:28;;;;;;;4.40;2.90;;;9.00;99.90;;;;;;5053314;28;20162;-60
2023/12/21 02:14:53;;;;;;;2.63;2.05;;;8.80;99.90;;;;;;5053776;28;20661;-60
2023/12/21 02:17:21;;;;;;;2.58;2.38;;;8.90;99.90;;;;;;5053144;28;20260;-60
2023/12/21 02:19:48;;;;;;;3.45;2.47;;;8.80;99.90;;;;;;5052769;28;20170;-60
2023/12/21 02:22:15;;;;;;;3.42;2.15;;;8.80;99.90;;;;;;5053166;28;20212;-60
2023/12/21 02:24:41;;;;;;;2.63;2.40;;;9.00;99.90;;;;;;5053290;28;20178;-60
2023/12/21 02:27:07;;;;;;;3.38;2.53;;;9.00;99.90;;;;;;5053040;28;20167;-61
2023/12/21 02:29:32;;;;;;;4.18;2.50;;;8.80;99.90;;;;;;5053052;28;20515;-61
2023/12/21 02:31:58;;;;;;;3.20;2.50;;;8.80;99.90;;;;;;5053445;28;20641;-60
2023/12/21 02:34:23;;;;;;;2.80;2.30;;;9.00;99.90;;;;;;5053296;28;20198;-61
2023/12/21 02:36:49;;;;;;;3.42;2.38;;;8.90;99.90;;;;;;5053387;28;20226;-60
2023/12/21 02:39:15;;;;;;;5.03;2.92;;;9.00;99.90;;;;;;5053071;28;20652;-61
2023/12/21 02:41:40;;;;;;;2.85;2.25;;;9.10;99.90;;;;;;5052723;28;20625;-60
2023/12/21 02:44:06;;;;;;;5.30;2.70;;;8.90;99.90;;;;;;5052736;28;20583;-60
2023/12/21 02:46:32;;;;;;;5.70;2.72;;;8.90;99.90;;;;;;5051447;28;20163;-61
2023/12/21 02:48:57;;;;;;;4.40;2.83;;;8.90;99.90;;;;;;5052680;28;20174;-60
2023/12/21 02:51:23;;;;;;;8.95;2.55;;;9.10;99.90;;;;;;5052916;28;20737;-61
2023/12/21 02:53:48;;;;;;;4.18;2.90;;;8.90;99.90;;;;;;5052411;28;20222;-60
2023/12/21 02:56:14;;;;;;;5.20;3.20;;;9.10;99.90;;;;;;5052413;28;20222;-61
2023/12/21 02:58:40;;;;;;;4.00;2.72;;;9.10;99.90;;;;;;5052507;28;20202;-49
2023/12/21 03:01:05;;;;;;;6.97;3.08;;;9.00;99.90;;;;;;5052397;28;20503;-59
2023/12/21 03:03:31;;;;;;;5.13;3.50;;;9.10;99.90;;;;;;5052386;28;20185;-55
2023/12/21 03:05:56;;;;;;;9.10;3.15;;;8.90;99.90;;;;;;5052057;28;20174;-57
2023/12/21 03:08:23;;;;;;;5.57;3.17;;;8.90;99.90;;;;;;5052695;28;20158;-60
2023/12/21 03:10:48;;;;;;;6.93;2.70;;;9.10;99.90;;;;;;5052227;28;20220;-59
2023/12/21 03:13:14;;;;;;;7.97;3.20;;;8.90;99.90;;;;;;5051157;28;20170;-60
2023/12/21 03:15:39;;;;;;;5.45;2.85;;;9.00;99.90;;;;;;5052048;28;20206;-55
2023/12/21 03:18:05;;;;;;;6.22;3.00;;;8.90;99.90;;;;;;5051875;28;20175;-58
2023/12/21 03:20:31;;;;;;;2.83;2.58;;;9.10;99.90;;;;;;5052066;28;20170;-61
2023/12/21 03:22:56;;;;;;;7.05;3.40;;;9.10;99.90;;;;;;5051881;28;20692;-59
2023/12/21 03:25:22;;;;;;;5.88;3.20;;;9.10;99.90;;;;;;5052413;28;20171;-60
2023/12/21 03:27:47;;;;;;;6.65;3.03;;;9.00;99.90;;;;;;5051869;28;20249;-58
2023/12/21 03:30:14;;;;;;;5.78;2.80;;;9.10;99.90;;;;;;5051769;28;20170;-56
2023/12/21 03:32:39;;;;;;;5.93;3.05;;;9.10;99.90;;;;;;5050953;28;20616;-53
2023/12/21 03:35:07;;;;;;;2.80;2.50;;;8.90;99.90;;;;;;5051974;28;20162;-54
2023/12/21 03:37:32;;;;;;;4.55;2.70;;;8.90;99.90;;;;;;5051789;28;20170;-58
2023/12/21 03:39:58;;;;;;;3.30;2.53;;;8.90;99.90;;;;;;5052032;28;20273;-49
2023/12/21 03:42:23;;;;;;;9.40;3.80;;;8.90;99.90;;;;;;5052047;28;20178;-49
2023/12/21 03:44:49;;;;;;;3.78;2.90;;;9.00;99.90;;;;;;5051804;28;20182;-54
2023/12/21 03:47:15;;;;;;;6.78;3.00;;;9.10;99.90;;;;;;5051324;28;20174;-51
2023/12/21 03:49:40;;;;;;;6.68;3.20;;;9.10;99.90;;;;;;5051101;28;20178;-49
2023/12/21 03:52:06;;;;;;;5.75;3.28;;;9.10;99.90;;;;;;5051508;28;20166;-49
2023/12/21 03:54:32;;;;;;;7.93;3.20;;;9.20;99.90;;;;;;5051334;28;20243;-55
2023/12/21 03:56:59;;;;;;;4.63;2.45;;;8.90;99.90;;;;;;5051400;28;20229;-55
2023/12/21 03:59:24;;;;;;;5.50;3.10;;;8.90;99.90;;;;;;5051675;28;20171;-53
2023/12/21 04:01:51;;;;;;;7.43;3.05;;;9.10;99.90;;;;;;5051788;28;20236;-54
2023/12/21 04:04:17;;;;;;;7.95;3.10;;;9.10;99.90;;;;;;5051333;28;20614;-49
2023/12/21 04:06:42;;;;;;;4.57;3.15;;;8.90;99.90;;;;;;5051255;28;20169;-55
2023/12/21 04:09:08;;;;;;;5.65;2.67;;;8.90;99.90;;;;;;5051314;28;20159;-50
2023/12/21 04:11:34;;;;;;;3.45;2.55;;;9.10;99.90;;;;;;5051286;28;20254;-53
2023/12/21 04:13:59;;;;;;;3.28;2.60;;;8.90;99.90;;;;;;5051259;28;20249;-60
2023/12/21 04:16:25;;;;;;;7.50;2.53;;;8.90;99.90;;;;;;5051299;28;20206;-60
2023/12/21 04:18:50;;;;;;;3.88;2.70;;;9.10;99.90;;;;;;5051427;28;20190;-60
2023/12/21 04:21:16;;;;;;;3.90;2.47;;;8.90;99.90;;;;;;5051102;28;20174;-60
2023/12/21 04:23:42;;;;;;;6.50;2.53;;;9.10;99.90;;;;;;5052516;28;20194;-60
2023/12/21 04:26:07;;;;;;;5.43;2.58;;;8.90;99.90;;;;;;5055514;28;20200;-60
2023/12/21 04:28:33;;;;;;;4.45;2.58;;;9.10;99.90;;;;;;5055276;28;20614;-61
2023/12/21 04:30:58;;;;;;;8.70;2.60;;;8.90;99.90;;;;;;5055307;28;20196;-60
2023/12/21 04:33:24;;;;;;;4.63;2.80;;;8.90;99.90;;;;;;5055251;28;20232;-57
2023/12/21 04:35:49;;;;;;;6.25;2.60;;;9.10;99.90;;;;;;5055517;28;20213;-60
2023/12/21 04:38:15;;;;;;;4.00;3.03;;;8.90;99.90;;;;;;5055402;28;20198;-57
2023/12/21 04:40:41;;;;;;;7.97;3.08;;;9.10;99.90;;;;;;5055005;28;20177;-60
2023/12/21 04:43:06;;;;;;;3.97;2.72;;;9.10;99.90;;;;;;5055037;28;20167;-61
2023/12/21 04:45:32;;;;;;;4.45;2.38;;;9.00;99.90;;;;;;5055010;28;20170;-61
2023/12/21 04:47:58;;;;;;;3.50;2.10;;;8.90;99.90;;;;;;5054639;28;20179;-60
2023/12/21 04:50:24;;;;;;;4.47;2.47;;;9.10;99.90;;;;;;5055074;28;20217;-52
2023/12/21 04:52:51;;;;;;;4.05;2.25;;;8.90;99.90;;;;;;5055474;28;20178;-60
2023/12/21 04:55:17;;;;;;;6.57;3.13;;;9.20;99.90;;;;;;5054637;28;20259;-61
2023/12/21 04:57:43;;;;;;;5.35;2.60;;;8.90;99.90;;;;;;5054531;28;20186;-59
2023/12/21 05:00:09;;;;;;;5.03;2.50;;;9.00;99.90;;;;;;5054778;28;20220;-61
2023/12/21 05:02:34;;;;;;;4.28;2.63;;;9.20;99.90;;;;;;5054598;28;20229;-60
2023/12/21 05:05:00;;;;;;;6.28;2.88;;;9.00;99.90;;;;;;5054552;28;20560;-58
2023/12/21 05:07:26;;;;;;;3.63;2.50;;;9.00;99.90;;;;;;5054757;28;20266;-60
2023/12/21 05:09:53;;;;;;;3.45;2.22;;;9.00;99.90;;;;;;5055101;28;20261;-60
2023/12/21 05:12:18;;;;;;;6.38;2.22;;;9.20;99.90;;;;;;5055167;28;20175;-57
2023/12/21 05:14:44;;;;;;;4.82;2.85;;;9.00;99.90;;;;;;5054389;28;20649;-60
2023/12/21 05:17:10;;;;;;;4.70;2.83;;;9.00;99.90;;;;;;5054007;28;20229;-56
2023/12/21 05:19:35;;;;;;;2.45;1.77;;;9.00;99.90;;;;;;5054170;28;20573;-59
2023/12/21 05:22:01;;;;;;;4.82;2.15;;;9.20;99.90;;;;;;5054318;28;20622;-60
2023/12/21 05:24:26;;;;;;;3.92;2.30;;;9.20;99.90;;;;;;5054247;28;20159;-60
2023/12/21 05:26:52;;;;;;;4.47;1.85;;;9.20;99.90;;;;;;5054706;28;20191;-61
2023/12/21 05:29:17;;;;;;;3.67;2.05;;;9.20;99.90;;;;;;5054098;28;20706;-53
2023/12/21 05:31:43;;;;;;;2.40;2.08;;;9.10;99.90;;;;;;5054120;28;20672;-51
2023/12/21 05:34:09;;;;;;;3.67;2.17;;;9.00;99.90;;;;;;5054322;28;20232;-54
2023/12/21 05:36:34;;;;;;;7.20;2.65;;;9.20;99.90;;;;;;5052837;28;20670;-52
2023/12/21 05:39:00;;;;;;;5.63;2.17;;;9.00;99.90;;;;;;5053999;28;20588;-56
2023/12/21 05:41:26;;;;;;;8.38;2.60;;;9.20;99.90;;;;;;5054172;28;20177;-50
2023/12/21 05:43:51;;;;;;;5.22;2.17;;;9.00;99.90;;;;;;5054308;28;20163;-50
2023/12/21 05:46:17;;;;;;;6.47;3.30;;;9.20;99.90;;;;;;5053815;28;20167;-50
2023/12/21 05:48:43;;;;;;;6.47;2.72;;;9.30;99.90;;;;;;5053200;28;20277;-59
2023/12/21 05:51:08;;;;;;;12.55;2.85;;;9.30;99.90;;;;;;5053988;28;20618;-60
2023/12/21 05:53:34;;;;;;;8.45;3.00;;;9.20;99.90;;;;;;5053760;28;20695;-57
2023/12/21 05:56:00;;;;;;;7.80;3.17;;;9.10;99.90;;;;;;5053513;28;20195;-61
2023/12/21 05:58:25;;;;;;;11.30;3.75;;;9.10;99.90;;;;;;5053718;28;20254;-56
2023/12/21 06:00:51;;;;;;;7.43;3.10;;;9.20;99.90;;;;;;5053941;28;20167;-58
2023/12/21 06:03:16;;;;;;;13.40;3.22;;;9.10;99.90;;;;;;5053532;28;20171;-63
2023/12/21 06:05:42;;;;;;;6.85;3.83;;;9.10;99.90;;;;;;5053505;28;20162;-60
2023/12/21 06:08:07;;;;;;;8.57;4.15;;;9.20;99.90;;;;;;5053384;28;20238;-62
2023/12/21 06:10:33;;;;;;;8.70;4.07;;;9.20;99.90;;;;;;5053315;28;20709;-62
2023/12/21 06:12:59;;;;;;;7.65;3.60;;;9.20;99.90;;;;;;5053267;28;20253;-62
2023/12/21 06:15:25;;;;;;;7.40;3.70;;;9.20;99.90;;;;;;5053201;28;20198;-60
2023/12/21 06:17:51;;;;;;;10.98;3.70;;;9.40;99.90;;;;;;5053194;28;20182;-58
2023/12/21 06:20:17;;;;;;;10.25;4.55;;;9.50;99.90;;;;;;5052666;28;20166;-58
2023/12/21 06:22:42;;;;;;;9.20;3.78;;;9.30;99.90;;;;;;5053103;28;20181;-59
2023/12/21 06:25:08;;;;;;;8.70;2.65;;;9.30;99.90;;;;;;5053328;28;20201;-49
2023/12/21 06:27:33;;;;;;;10.93;3.08;;;9.40;99.90;;;;;;5052840;28;20644;-51
2023/12/21 06:29:59;;;;;;;10.52;2.90;;;9.30;99.90;;;;;;5053059;28;20174;-48
2023/12/21 06:32:25;;;;;;;8.73;2.92;;;9.30;99.90;;;;;;5053200;28;20175;-48
2023/12/21 06:34:51;;;;;;;12.88;3.13;;;9.40;99.90;;;;;;5053476;28;20529;-47
2023/12/21 06:37:16;;;;;;;5.68;2.45;;;9.30;99.90;;;;;;5052892;28;20669;-47
2023/12/21 06:39:42;;;;;;;4.97;2.25;;;9.40;99.90;;;;;;5052799;28;20529;-49
2023/12/21 06:42:07;;;;;;;5.95;2.40;;;9.50;99.90;;;;;;5052755;28;20178;-48
2023/12/21 06:44:33;;;;;;;5.20;2.65;;;9.30;99.90;;;;;;5052714;28;20174;-49
2023/12/21 06:47:00;;;;;;;8.27;3.10;;;9.60;99.90;;;;;;5052192;28;20258;-58
2023/12/21 06:49:26;;;;;;;6.70;2.65;;;9.50;99.90;;;;;;5051009;28;20178;-55
2023/12/21 06:51:51;;;;;;;6.93;3.15;;;9.50;99.90;;;;;;5052899;28;20205;-57
2023/12/21 06:54:17;;;;;;;8.23;2.35;;;9.60;99.90;;;;;;5051949;28;20218;-56
2023/12/21 06:56:43;;;;;;;6.47;3.08;;;9.30;99.90;;;;;;5052325;28;20248;-56
2023/12/21 06:59:08;;;;;;;6.82;2.30;;;9.50;99.90;;;;;;5052318;28;20167;-57
2023/12/21 07:01:35;;;;;;;12.98;2.95;;;9.30;99.90;;;;;;5051935;28;20258;-53
2023/12/21 07:04:00;;;;;;;7.63;3.00;;;9.50;99.90;;;;;;5052564;28;20173;-50
2023/12/21 07:06:26;;;;;;;10.35;3.00;;;9.50;99.90;;;;;;5052444;28;20170;-52
2023/12/21 07:08:52;;;;;;;7.32;2.90;;;9.30;99.90;;;;;;5052412;28;20522;-51
2023/12/21 07:11:18;;;;;;;11.68;3.28;;;9.50;99.90;;;;;;5052126;28;20170;-55
2023/12/21 07:13:44;;;;;;;9.90;2.75;;;9.50;99.90;;;;;;5052227;28;20202;-55
2023/12/21 07:16:11;;;;;;;9.63;3.50;;;9.60;99.90;;;;;;5051872;28;20670;-54
2023/12/21 07:18:36;;;;;;;10.38;4.22;;;9.50;99.90;;;;;;5051254;28;20205;-60
2023/12/21 07:21:03;;;;;;;9.55;3.75;;;9.50;99.90;;;;;;5051810;28;20735;-47
2023/12/21 07:23:29;;;;;;;11.27;2.90;;;9.40;99.90;;;;;;5051981;28;20159;-48
2023/12/21 07:25:54;;;;;;;7.80;2.55;;;9.50;99.90;;;;;;5051744;28;20522;-47
2023/12/21 07:28:20;;;;;;;12.43;3.30;;;9.60;99.90;;;;;;5052296;28;20183;-49
2023/12/21 07:30:46;;;;;;;8.05;2.58;;;9.40;99.90;;;;;;5051396;28;20220;-47
2023/12/21 07:33:11;;;;;;;4.32;2.22;;;9.50;99.90;;;;;;5051818;28;20187;-48
2023/12/21 07:35:38;;;;;;;12.30;3.20;;;9.70;99.90;;;;;;5065923;28;20201;-56
2023/12/21 07:38:04;;;;;;;13.43;3.00;;;9.50;99.90;;;;;;5071117;28;20257;-55
2023/12/21 07:40:30;;;;;;;4.93;2.70;;;9.70;99.90;;;;;;5065961;28;20189;-56
2023/12/21 07:42:55;;;;;;;11.35;3.40;;;9.70;99.90;;;;;;5051344;28;20170;-59
2023/12/21 07:45:21;;;;;;;8.48;2.97;;;9.60;99.90;;;;;;5068754;28;20192;-57
2023/12/21 07:47:47;;;;;;;11.30;3.47;;;9.70;99.90;;;;;;5071495;28;20170;-53
2023/12/21 07:50:12;;;;;;;19.05;4.35;;;9.70;99.90;;;;;;5062112;28;20670;-54
2023/12/21 07:52:38;;;;;;;6.60;2.25;;;9.50;99.90;;;;;;5059299;28;20185;-53
2023/12/21 07:55:04;;;;;;;8.82;3.42;;;9.70;99.90;;;;;;5051240;28;20221;-49
2023/12/21 07:57:30;;;;;;;9.43;3.08;;;9.60;99.90;;;;;;5051355;28;20296;-50
2023/12/21 07:59:56;;;;;;;8.93;3.53;;;9.70;99.90;;;;;;5050950;28;20274;-48
2023/12/21 08:02:21;;;;;;;10.23;3.42;;;9.80;99.90;;;;;;5051855;28;20304;-49
2023/12/21 08:04:47;;;;;;;8.82;2.90;;;9.70;99.90;;;;;;5051275;28;20175;-60
2023/12/21 08:07:13;;;;;;;36.75;4.25;;;9.70;99.90;;;;;;5056723;28;20173;-60
2023/12/21 08:09:38;;;;;;;7.65;2.60;;;9.80;99.90;;;;;;5060949;28;20264;-59
2023/12/21 08:12:04;;;;;;;9.15;3.00;;;9.90;99.90;;;;;;5070236;28;20174;-60
2023/12/21 08:14:31;;;;;;;7.32;2.50;;;9.80;99.90;;;;;;5051184;28;20198;-59
2023/12/21 08:16:59;;;;;;;8.15;2.90;;;9.80;99.90;;;;;;5051453;28;20210;-60
2023/12/21 08:19:25;;;;;;;10.00;2.50;;;9.80;99.90;;;;;;5051271;28;20167;-59
2023/12/21 08:21:51;;;;;;;10.23;3.10;;;9.90;99.90;;;;;;5051694;28;20251;-58
2023/12/21 08:24:16;;;;;;;10.07;3.25;;;10.00;99.90;;;;;;5051275;28;20158;-59
2023/12/21 08:26:42;;;;;;;9.00;3.13;;;9.90;99.90;;;;;;5051201;28;20167;-59
2023/12/21 08:29:07;;;;;;;6.43;2.28;;;10.00;99.90;;;;;;5051047;28;20163;-59
2023/12/21 08:31:33;;;;;;;8.18;3.10;;;9.90;99.90;;;;;;5051149;28;20257;-59
2023/12/21 08:33:59;;;;;;;10.50;2.45;;;9.90;99.90;;;;;;5051297;28;20173;-59
2023/12/21 08:36:24;;;;;;;6.15;3.15;;;9.90;99.90;;;;;;5050733;28;20647;-56
2023/12/21 08:38:50;;;;;;;5.40;2.35;;;9.80;99.90;;;;;;5051510;28;20534;-59
2023/12/21 08:41:16;;;;;;;5.47;1.80;;;10.00;99.90;;;;;;5050713;28;20223;-56
2023/12/21 08:43:42;;;;;;;6.07;2.85;;;9.80;99.90;;;;;;5048159;28;20214;-59
2023/12/21 08:46:07;;;;;;;5.80;1.90;;;10.00;99.90;;;;;;5049241;28;20548;-56
2023/12/21 08:48:33;;;;;;;7.75;2.35;;;9.90;99.90;;;;;;5047917;28;20564;-56
2023/12/21 08:50:58;;;;;;;5.47;2.55;;;9.90;99.90;;;;;;5049309;28;20174;-56
2023/12/21 08:53:24;;;;;;;5.80;2.13;;;9.90;99.90;;;;;;5048967;28;20167;-56
2023/12/21 08:55:49;;;;;;;5.30;2.58;;;9.90;99.90;;;;;;5049446;28;20653;-56
2023/12/21 08:58:15;;;;;;;5.25;2.45;;;9.70;99.90;;;;;;5048963;28;20165;-55
2023/12/21 09:00:40;;;;;;;7.18;2.75;;;9.70;99.90;;;;;;5048819;28;20245;-57
2023/12/21 09:03:06;;;;;;;6.03;2.08;;;9.70;99.90;;;;;;5049025;28;20250;-57
2023/12/21 09:05:32;;;;;;;10.88;2.90;;;9.60;99.90;;;;;;5049062;28;20206;-56
2023/12/21 09:07:57;;;;;;;9.57;2.45;;;9.60;99.90;;;;;;5048924;28;20167;-56
2023/12/21 09:10:23;;;;;;;8.27;2.95;;;9.80;99.90;;;;;;5051751;28;20520;-49
2023/12/21 09:12:48;;;;;;;5.40;2.67;;;10.80;99.90;;;;;;5053153;28;20175;-57
2023/12/21 09:15:14;;;;;;;4.57;2.25;;;9.70;99.90;;;;;;5053006;28;20661;-56
2023/12/21 09:17:40;;;;;;;7.57;2.10;;;9.70;99.90;;;;;;5052655;28;20170;-55
2023/12/21 09:20:08;;;;;;;6.75;2.17;;;9.60;99.90;;;;;;5051076;28;20240;-55
2023/12/21 09:22:34;;;;;;;4.90;1.92;;;9.60;99.90;;;;;;5052682;28;20227;-56
2023/12/21 09:25:01;;;;;;;3.55;1.95;;;9.80;99.90;;;;;;5052741;28;20261;-62
2023/12/21 09:27:28;;;;;;;5.53;2.60;;;9.70;99.90;;;;;;5052802;28;20224;-57
2023/12/21 09:29:54;;;;;;;7.15;2.05;;;9.70;99.90;;;;;;5052638;28;20175;-48
2023/12/21 09:32:20;;;;;;;7.15;1.80;;;9.70;99.90;;;;;;5052763;28;20644;-55
2023/12/21 09:34:47;;;;;;;7.63;2.20;;;9.80;99.90;;;;;;5052549;28;20178;-56
2023/12/21 09:37:14;;;;;;;6.28;1.70;;;9.80;99.90;;;;;;5052460;28;20214;-55
2023/12/21 09:39:39;;;;;;;4.90;1.90;;;9.70;99.90;;;;;;5052557;28;20810;-57
2023/12/21 09:42:05;;;;;;;6.55;2.00;;;9.70;99.90;;;;;;5051702;28;20182;-58
2023/12/21 09:44:32;;;;;;;5.68;1.95;;;9.70;99.90;;;;;;5051721;28;20416;-58
2023/12/21 09:47:02;;;;;;;4.93;1.90;;;9.70;99.90;;;;;;5052172;28;20216;-54
2023/12/21 09:49:30;;;;;;;4.25;1.90;;;9.90;99.90;;;;;;5052120;28;20630;-45
2023/12/21 09:51:58;;;;;;;6.80;1.50;;;9.90;99.90;;;;;;5052236;28;20175;-53
2023/12/21 09:54:24;;;;;;;2.58;1.60;;;9.70;99.90;;;;;;5051997;28;20228;-53
2023/12/21 09:56:52;;;;;;;1.40;1.30;;;9.80;99.90;;;;;;5052203;28;20289;-55
2023/12/21 09:59:19;;;;;;;3.17;1.42;;;9.70;99.90;;;;;;5051924;28;20199;-57
2023/12/21 10:01:45;;;;;;;2.38;1.40;;;9.90;99.90;;;;;;5051847;28;20195;-56
2023/12/21 10:04:10;;;;;;;3.72;1.67;;;9.70;99.90;;;;;;5052146;28;20233;-54
2023/12/21 10:06:37;;;;;;;3.00;1.90;;;9.70;99.90;;;;;;5051810;28;20752;-57
2023/12/21 10:09:04;;;;;;;2.83;1.70;;;9.90;99.90;;;;;;5051708;28;20203;-59
2023/12/21 10:11:30;;;;;;;6.03;1.60;;;9.90;99.90;;;;;;5051670;28;20228;-56
2023/12/21 10:13:57;;;;;;;4.25;1.33;;;9.80;99.90;;;;;;5051595;28;20525;-55
2023/12/21 10:16:26;;;;;;;1.88;1.15;;;9.90;99.90;;;;;;5051516;28;20199;-54
2023/12/21 10:18:51;;;;;;;4.60;1.50;;;9.90;99.90;;;;;;5051905;28;20285;-58
2023/12/21 10:21:17;;;;;;;5.30;1.05;;;9.80;99.90;;;;;;5050923;28;20238;-55
2023/12/21 10:23:43;;;;;;;4.32;2.45;;;9.90;99.90;;;;;;5051349;28;20224;-49
2023/12/21 10:26:09;;;;;;;8.35;4.63;;;9.90;99.90;;;;;;5051434;28;20641;-44
2023/12/21 10:28:34;;;;;;;5.15;3.17;;;9.90;99.90;;;;;;5051580;28;20838;-55
2023/12/21 10:31:04;;;;;;;5.43;2.97;;;9.90;99.90;;;;;;5051544;28;20202;-47
2023/12/21 10:33:31;;;;;;;4.90;2.35;;;10.00;99.90;;;;;;5051308;28;20173;-44
2023/12/21 10:35:57;;;;;;;2.75;2.15;;;9.90;99.90;;;;;;5051069;28;20233;-48
2023/12/21 10:38:23;;;;;;;8.63;1.92;;;9.90;99.90;;;;;;5051565;28;20638;-52
2023/12/21 10:40:49;;;;;;;3.15;1.98;;;10.00;99.90;;;;;;5051242;28;20191;-49
2023/12/21 10:43:15;;;;;;;2.50;1.80;;;10.00;99.90;;;;;;5051294;28;20178;-55
2023/12/21 10:45:48;;;;;;;2.33;1.83;;;9.90;99.90;;;;;;5050995;28;20159;-58
2023/12/21 10:48:16;;;;;;;2.83;2.13;;;10.10;99.90;;;;;;5051441;28;20183;-57
2023/12/21 10:50:46;;;;;;;12.18;2.78;;;9.90;99.90;;;;;;5051065;28;20250;-52
2023/12/21 10:53:13;;;;;;;7.53;3.05;;;10.10;99.90;;;;;;5050674;28;20185;-54
2023/12/21 10:55:40;;;;;;;3.03;2.13;;;10.10;99.90;;;;;;5050701;28;20194;-65
2023/12/21 10:58:06;;;;;;;5.53;2.70;;;9.90;99.90;;;;;;5050912;28;20175;-48
2023/12/21 11:00:33;;;;;;;9.50;3.30;;;9.90;99.90;;;;;;5050756;28;20644;-57
2023/12/21 11:02:59;;;;;;;5.57;3.03;;;10.10;99.90;;;;;;5050898;28;20174;-65
2023/12/21 11:05:27;;;;;;;3.13;2.35;;;10.00;99.90;;;;;;5050776;28;20256;-55
2023/12/21 11:07:54;;;;;;;7.45;3.05;;;9.90;99.90;;;;;;5050495;28;20518;-57
2023/12/21 11:10:22;;;;;;;9.85;3.40;;;9.90;99.90;;;;;;5051050;28;20185;-53
2023/12/21 11:12:48;;;;;;;4.68;2.33;;;10.00;99.90;;;;;;5050453;28;20248;-57
2023/12/21 11:15:18;;;;;;;5.30;2.17;;;10.10;99.90;;;;;;5050497;28;20166;-63
2023/12/21 11:17:50;;;;;;;5.35;2.58;;;9.90;99.90;;;;;;5050549;28;20198;-55
2023/12/21 11:20:20;;;;;;;7.10;2.60;;;10.00;99.90;;;;;;5050755;28;20180;-48
2023/12/21 11:22:46;;;;;;;6.32;2.83;;;10.10;99.90;;;;;;5050228;28;20250;-54
2023/12/21 11:25:13;;;;;;;3.38;2.28;;;10.10;99.90;;;;;;5049039;28;20602;-58
2023/12/21 11:27:40;;;;;;;4.53;3.28;;;10.30;99.90;;;;;;5050434;28;20222;-55
2023/12/21 11:30:10;;;;;;;4.03;2.47;;;10.30;99.90;;;;;;5050466;28;20233;-56
2023/12/21 11:32:39;;;;;;;7.55;2.38;;;10.20;99.90;;;;;;5049924;28;20178;-54
2023/12/21 11:35:21;;;;;;;6.07;2.28;;;10.40;99.90;;;;;;5049934;28;20171;-54
2023/12/21 11:37:57;;;;;;;5.82;2.58;;;10.40;99.90;;;;;;5050038;28;20190;-54
2023/12/21 11:40:24;;;;;;;4.03;2.50;;;10.40;99.90;;;;;;5050079;28;20536;-53
2023/12/21 11:42:50;;;;;;;6.28;2.20;;;10.30;99.90;;;;;;5050621;28;20174;-59
2023/12/21 11:45:24;;;;;;;8.13;2.70;;;10.40;99.90;;;;;;5050368;28;20171;-59
2023/12/21 11:47:52;;;;;;;3.28;2.08;;;10.50;99.90;;;;;;5050592;28;20224;-59
2023/12/21 11:50:23;;;;;;;6.45;2.35;;;10.50;99.90;;;;;;5049801;28;20734;-59
2023/12/21 11:52:49;;;;;;;4.28;2.00;;;10.50;99.90;;;;;;5050639;28;20221;-59
2023/12/21 11:55:25;;;;;;;6.20;2.78;;;10.60;99.90;;;;;;5049679;28;20248;-59
2023/12/21 11:58:06;;;;;;;4.18;2.08;;;10.50;99.90;;;;;;5050429;28;20240;-58
2023/12/21 12:00:32;;;;;;;4.60;2.58;;;10.60;99.90;;;;;;5050111;28;20166;-59
2023/12/21 12:02:59;;;;;;;7.47;2.65;;;10.40;99.90;;;;;;5049684;28;20777;-59
2023/12/21 12:05:27;;;;;;;4.45;1.88;;;10.70;99.90;;;;;;5049683;28;20173;-53
2023/12/21 12:07:54;;;;;;;3.70;1.60;;;10.60;99.90;;;;;;5050197;28;20210;-53
2023/12/21 12:10:22;;;;;;;9.23;1.98;;;10.70;99.90;;;;;;5050166;28;20591;-53
2023/12/21 12:12:48;;;;;;;3.75;2.13;;;10.80;99.90;;;;;;5049607;28;20201;-58
2023/12/21 12:15:14;;;;;;;4.63;2.10;;;10.90;99.90;;;;;;5049562;28;20509;-59
2023/12/21 12:17:41;;;;;;;19.40;2.72;;;10.80;99.90;;;;;;5048976;28;20215;-49
2023/12/21 12:20:09;;;;;;;2.10;1.85;;;10.90;99.90;;;;;;5049542;28;20253;-45
2023/12/21 12:22:35;;;;;;;3.05;1.90;;;10.90;99.90;;;;;;5049304;28;20217;-60
2023/12/21 12:25:01;;;;;;;2.17;1.83;;;11.10;99.90;;;;;;5049463;28;20220;-56
2023/12/21 12:27:27;;;;;;;1.92;1.23;;;11.10;99.90;;;;;;5049345;28;20246;-52
2023/12/21 12:29:54;;;;;;;2.70;1.45;;;11.10;99.90;;;;;;5048858;28;20171;-57
2023/12/21 12:32:21;;;;;;;2.67;1.40;;;11.10;99.90;;;;;;5048913;28;20197;-53
2023/12/21 12:34:47;;;;;;;1.88;1.35;;;11.00;99.90;;;;;;5049355;28;20175;-52
2023/12/21 12:37:15;;;;;;;3.47;1.30;;;11.20;99.90;;;;;;5048251;28;21032;-56
2023/12/21 12:39:41;;;;;;;2.22;1.08;;;11.10;99.90;;;;;;5048714;28;20175;-54
2023/12/21 12:42:07;;;;;;;2.00;1.15;;;10.90;99.90;;;;;;5048993;28;20175;-48
2023/12/21 12:44:33;;;;;;;2.47;1.40;;;11.00;99.90;;;;;;5050089;28;20228;-50
2023/12/21 12:46:59;;;;;;;3.63;1.60;;;10.90;99.90;;;;;;5053253;28;20171;-46
2023/12/21 12:49:25;;;;;;;1.38;1.00;;;11.00;99.90;;;;;;5053160;28;20171;-55